Time;durP1;ratioP1;P1;durP2;ratioP2;P2;SDS_P1;SDS_P2;PMS_P1;PMS_P2;Temp;Humidity;BMP_temperature;BMP_pressure;BME280_temperature;BME280_humidity;BME280_pressure;Samples;Min_cycle;Max_cycle;Signal;HPM_P1;HPM_P2
2023/12/18 00:09:44;;;;;;;23.20;11.50;;;;;;;3.57;98.62;99844.69;437280;1247;99218;-40
2023/12/18 00:19:51;;;;;;;31.60;14.70;;;;;;;3.55;98.50;99853.65;437342;1250;112765;-41
2023/12/18 00:29:58;;;;;;;24.50;11.40;;;;;;;3.47;98.48;99846.23;437422;1250;108282;-39
2023/12/18 00:40:04;;;;;;;19.90;11.70;;;;;;;3.44;98.14;99837.49;437260;1250;99218;-40
2023/12/18 00:50:11;;;;;;;17.60;11.70;;;;;;;3.40;98.17;99817.84;437138;1247;337479;-39
2023/12/18 01:10:26;;;;;;;23.50;13.80;;;;;;;3.48;98.39;99808.13;437275;1251;110741;-40
2023/12/18 01:20:33;;;;;;;22.10;12.60;;;;;;;3.47;98.23;99803.52;437445;1252;108209;-42
2023/12/18 01:40:47;;;;;;;20.20;12.10;;;;;;;3.48;97.90;99796.13;437429;1250;107260;-40
2023/12/18 01:50:53;;;;;;;31.50;14.50;;;;;;;3.36;97.96;99788.83;437383;1248;98008;-39
2023/12/18 02:01:02;;;;;;;27.80;14.10;;;;;;;3.19;97.91;99772.77;437561;1250;111636;-40
2023/12/18 02:11:09;;;;;;;20.50;11.20;;;;;;;3.16;97.73;99765.70;437492;1247;107759;-39
2023/12/18 02:21:19;;;;;;;20.00;11.80;;;;;;;3.14;97.69;99767.01;437326;1250;99844;-40
2023/12/18 02:31:25;;;;;;;23.20;13.30;;;;;;;3.09;97.51;99765.54;438247;1247;105771;-39
2023/12/18 02:41:33;;;;;;;25.80;15.00;;;;;;;2.95;97.73;99760.11;437505;1250;99243;-39
2023/12/18 02:51:42;;;;;;;22.60;12.00;;;;;;;2.89;97.51;99759.72;437471;1250;110760;-40
2023/12/18 03:01:49;;;;;;;20.00;10.50;;;;;;;2.90;97.52;99754.92;437271;1248;108333;-39
2023/12/18 03:11:56;;;;;;;17.10;10.30;;;;;;;2.96;97.60;99740.23;437392;1254;98837;-39
2023/12/18 03:22:04;;;;;;;23.40;14.20;;;;;;;2.96;97.71;99741.46;437387;1250;108418;-40
2023/12/18 03:32:11;;;;;;;28.90;15.30;;;;;;;2.91;97.66;99742.32;437505;1247;98485;-39
2023/12/18 03:42:18;;;;;;;15.20;9.40;;;;;;;2.87;97.35;99741.85;437380;1251;110475;-39
2023/12/18 03:52:26;;;;;;;16.90;11.00;;;;;;;2.86;97.33;99732.51;437186;1247;108010;-39
2023/12/18 04:12:37;;;;;;;20.80;12.90;;;;;;;2.80;97.41;99748.38;437403;1250;108568;-40
2023/12/18 04:22:45;;;;;;;14.40;9.00;;;;;;;2.77;97.22;99746.13;437430;1260;99205;-39
2023/12/18 04:32:52;;;;;;;17.40;9.70;;;;;;;2.79;97.14;99746.41;437383;1250;111431;-41
2023/12/18 04:43:00;;;;;;;20.60;11.70;;;;;;;2.77;97.39;99743.88;437461;1251;108268;-40
2023/12/18 04:53:06;;;;;;;24.10;12.80;;;;;;;2.69;97.30;99747.95;437308;1250;98328;-38
2023/12/18 05:03:13;;;;;;;22.10;11.10;;;;;;;2.70;97.00;99747.20;437500;1260;110795;-39
2023/12/18 05:13:20;;;;;;;23.70;11.90;;;;;;;2.73;97.04;99758.65;437456;1254;108466;-41
2023/12/18 05:23:27;;;;;;;15.90;9.20;;;;;;;2.77;96.97;99761.39;437423;1254;98909;-40
2023/12/18 05:33:34;;;;;;;26.30;14.60;;;;;;;2.76;97.21;99759.25;437381;1250;106965;-40
2023/12/18 05:43:42;;;;;;;21.00;12.40;;;;;;;2.70;97.05;99765.59;437519;1250;97981;-39
2023/12/18 06:03:57;;;;;;;17.20;10.10;;;;;;;2.69;96.70;99765.67;437539;1251;107266;-39
2023/12/18 06:14:04;;;;;;;29.10;13.90;;;;;;;2.65;96.84;99759.15;437476;1250;98810;-39
2023/12/18 06:24:11;;;;;;;31.00;18.40;;;;;;;2.54;96.91;99757.11;437617;1248;111287;-40
2023/12/18 06:34:19;;;;;;;19.20;12.20;;;;;;;2.48;96.63;99748.13;437307;1248;109031;-39
2023/12/18 06:54:33;;;;;;;14.70;9.50;;;;;;;2.58;96.86;99753.27;437147;1260;110359;-39
2023/12/18 07:04:40;;;;;;;26.90;15.40;;;;;;;2.66;96.92;99752.30;437436;1251;99209;-39
2023/12/18 07:14:47;;;;;;;30.50;16.20;;;;;;;2.68;96.97;99755.68;437364;1251;111990;-38
2023/12/18 07:24:54;;;;;;;22.20;12.80;;;;;;;2.78;96.65;99765.38;437332;1251;108536;-40
2023/12/18 07:45:06;;;;;;;25.90;14.30;;;;;;;3.03;96.65;99781.45;437471;1250;107752;-40
2023/12/18 07:55:14;;;;;;;22.30;13.20;;;;;;;3.38;97.34;99767.88;437365;1251;97991;-40
2023/12/18 08:05:21;;;;;;;23.50;13.20;;;;;;;4.14;97.42;99762.63;437568;1248;111708;-40
2023/12/18 08:15:28;;;;;;;16.10;9.00;;;;;;;4.66;97.25;99740.08;437301;1250;108226;-40
2023/12/18 08:25:34;;;;;;;24.00;12.10;;;;;;;6.68;98.44;99745.30;437593;1250;99236;-39
2023/12/18 08:35:41;;;;;;;21.20;12.00;;;;;;;7.90;97.39;99743.54;437393;1251;112119;-39
2023/12/18 08:55:53;;;;;;;16.40;9.60;;;;;;;8.62;95.15;99752.98;437287;1246;99227;-39
2023/12/18 09:05:59;;;;;;;16.70;9.50;;;;;;;8.36;94.27;99762.82;437380;1250;108432;-40
2023/12/18 09:16:07;;;;;;;12.20;7.40;;;;;;;8.15;93.90;99769.52;437429;1248;98562;-39
2023/12/18 09:26:14;;;;;;;11.40;6.40;;;;;;;7.97;92.72;99760.93;437460;1251;112303;-40
2023/12/18 09:36:21;;;;;;;15.80;7.10;;;;;;;7.85;92.03;99748.81;437423;1247;107849;-39
2023/12/18 09:56:34;;;;;;;10.50;6.60;;;;;;;8.04;89.64;99702.53;437541;1250;112012;-40
2023/12/18 10:06:41;;;;;;;10.10;5.00;;;;;;;8.18;89.18;99693.06;437405;1248;108061;-40
2023/12/18 10:16:50;;;;;;;9.50;6.10;;;;;;;8.23;88.21;99706.11;437438;1248;99134;-40
2023/12/18 10:26:57;;;;;;;7.00;4.80;;;;;;;8.28;87.53;99705.32;437394;1250;107243;-41
2023/12/18 10:47:12;;;;;;;9.60;5.10;;;;;;;8.47;85.90;99689.14;437390;1251;111932;-39
2023/12/18 10:57:24;;;;;;;10.40;5.40;;;;;;;8.54;85.63;99680.90;437239;1250;108430;-41
2023/12/18 11:27:43;;;;;;;10.50;5.60;;;;;;;8.59;83.70;99651.41;437436;1248;99842;-39
2023/12/18 11:37:52;;;;;;;7.60;4.80;;;;;;;8.65;82.88;99667.79;437394;1248;112215;-39
2023/12/18 11:48:02;;;;;;;6.50;3.70;;;;;;;8.64;82.76;99675.24;437300;1250;109133;-39
2023/12/18 11:58:08;;;;;;;6.80;3.60;;;;;;;8.68;81.44;99659.79;437185;1251;99262;-40
2023/12/18 12:08:14;;;;;;;6.60;3.90;;;;;;;8.64;81.01;99639.07;437257;1250;109149;-40
2023/12/18 12:18:20;;;;;;;4.60;3.80;;;;;;;8.57;80.72;99640.20;437261;1248;97981;-40
2023/12/18 12:28:28;;;;;;;7.60;4.00;;;;;;;8.52;81.09;99646.61;437417;1250;111356;-40
2023/12/18 12:38:36;;;;;;;7.40;3.80;;;;;;;8.60;80.23;99628.45;437126;1248;107237;-41
2023/12/18 12:48:44;;;;;;;7.10;4.20;;;;;;;8.57;80.98;99636.52;436970;1247;231700;-39
2023/12/18 12:58:51;;;;;;;5.90;4.30;;;;;;;8.50;80.03;99638.73;437296;1250;106882;-39
2023/12/18 13:08:57;;;;;;;7.70;4.60;;;;;;;8.42;80.66;99642.52;437272;1247;98006;-39
2023/12/18 13:19:03;;;;;;;11.90;4.70;;;;;;;8.48;80.99;99646.83;437215;1250;112028;-39
2023/12/18 13:39:17;;;;;;;10.70;4.60;;;;;;;8.50;82.01;99635.07;437205;1247;98781;-38
2023/12/18 13:49:23;;;;;;;16.80;9.40;;;;;;;8.40;81.65;99616.27;437131;1250;109676;-40
2023/12/18 13:59:31;;;;;;;16.40;8.10;;;;;;;8.29;82.15;99613.88;437328;1247;99243;-38
2023/12/18 14:09:38;;;;;;;49.80;18.80;;;;;;;8.32;82.54;99621.10;437029;1250;112029;-41
2023/12/18 14:19:45;;;;;;;43.70;22.60;;;;;;;8.40;82.94;99630.09;436995;1250;107616;-40
2023/12/18 14:29:53;;;;;;;43.30;19.60;;;;;;;8.34;83.23;99637.58;437182;1248;99263;-40
2023/12/18 14:50:06;;;;;;;10.40;6.90;;;;;;;7.96;83.15;99649.70;437283;1250;97917;-40
2023/12/18 15:00:15;;;;;;;13.20;7.60;;;;;;;7.88;83.21;99657.55;437107;1263;110307;-40
2023/12/18 15:10:22;;;;;;;11.20;5.40;;;;;;;7.83;83.17;99649.95;437251;1250;107710;-42
2023/12/18 15:20:28;;;;;;;10.50;6.10;;;;;;;7.74;83.37;99664.65;437296;1250;99262;-40
2023/12/18 15:30:34;;;;;;;14.60;7.30;;;;;;;7.64;83.41;99663.62;437281;1247;109455;-39
2023/12/18 15:40:42;;;;;;;10.50;6.20;;;;;;;7.51;83.47;99671.52;437316;1250;97991;-40
2023/12/18 15:50:49;;;;;;;16.00;7.90;;;;;;;7.41;83.35;99670.51;437263;1247;112213;-40
2023/12/18 16:00:56;;;;;;;20.20;9.90;;;;;;;7.38;83.44;99661.70;437411;1250;107294;-39
2023/12/18 16:11:03;;;;;;;14.20;7.00;;;;;;;7.43;83.53;99653.20;437271;1246;99295;-40
2023/12/18 16:21:09;;;;;;;32.40;15.70;;;;;;;7.38;83.66;99632.78;437201;1250;111361;-40
2023/12/18 16:31:17;;;;;;;41.10;19.90;;;;;;;7.18;83.73;99623.02;437279;1250;107463;-40
2023/12/18 16:41:29;;;;;;;38.70;15.90;;;;;;;6.95;83.78;99628.50;437345;1248;98699;-39
2023/12/18 16:51:37;;;;;;;35.40;16.60;;;;;;;6.69;83.84;99631.73;437350;1247;108708;-40
2023/12/18 17:01:45;;;;;;;32.30;18.00;;;;;;;6.49;83.80;99617.09;437489;1250;99311;-41
2023/12/18 17:11:52;;;;;;;60.60;28.40;;;;;;;6.34;83.86;99606.71;437355;1250;111009;-39
2023/12/18 17:21:59;;;;;;;49.40;23.60;;;;;;;6.19;84.13;99608.49;437277;1250;108745;-41
2023/12/18 17:42:12;;;;;;;24.50;15.20;;;;;;;5.74;84.53;99600.71;437344;1250;107428;-39
2023/12/18 17:52:19;;;;;;;30.00;19.20;;;;;;;5.49;84.78;99599.45;437331;1248;98109;-40
2023/12/18 18:02:27;;;;;;;42.60;24.50;;;;;;;5.31;84.75;99595.14;437214;1250;110629;-43
2023/12/18 18:12:34;;;;;;;40.90;20.70;;;;;;;5.25;85.10;99591.92;437319;1266;108519;-40
2023/12/18 18:22:40;;;;;;;79.20;36.70;;;;;;;5.28;85.50;99598.56;437193;1250;99227;-39
2023/12/18 18:32:47;;;;;;;61.20;30.50;;;;;;;5.32;85.85;99592.58;437413;1250;108240;-40
2023/12/18 18:42:55;;;;;;;55.30;31.00;;;;;;;5.28;85.95;99582.86;437240;1250;99215;-41
2023/12/18 19:03:09;;;;;;;65.60;33.80;;;;;;;5.18;86.16;99558.77;437197;1250;107232;-39
2023/12/18 19:13:22;;;;;;;83.30;43.40;;;;;;;5.22;86.21;99541.77;437320;1250;99282;-40
2023/12/18 19:23:29;;;;;;;120.90;56.90;;;;;;;5.24;86.29;99533.98;437422;1250;112597;-38
2023/12/18 19:33:38;;;;;;;143.70;65.90;;;;;;;5.19;86.45;99524.77;437409;1247;106817;-41
2023/12/18 19:43:45;;;;;;;113.90;57.70;;;;;;;5.10;86.77;99532.28;437575;1247;98815;-39
2023/12/18 19:53:51;;;;;;;87.40;43.60;;;;;;;5.06;86.82;99513.99;437354;1250;106561;-38
2023/12/18 20:03:59;;;;;;;83.80;46.00;;;;;;;5.10;86.83;99500.14;437559;1250;99237;-39
2023/12/18 20:14:07;;;;;;;99.60;51.20;;;;;;;5.10;87.04;99492.80;437629;1250;112046;-40
2023/12/18 20:24:13;;;;;;;75.40;42.50;;;;;;;4.98;87.20;99477.86;437313;1248;107754;-40
2023/12/18 20:34:18;;;;;;;74.30;37.70;;;;;;;4.84;87.34;99477.16;437412;1250;98859;-39
2023/12/18 20:44:26;;;;;;;63.30;32.60;;;;;;;4.81;87.30;99470.39;437282;1250;110816;-39
2023/12/18 20:54:34;;;;;;;57.10;29.30;;;;;;;4.84;87.36;99470.34;437336;1248;109400;-41
2023/12/18 21:04:41;;;;;;;70.00;33.80;;;;;;;4.90;87.47;99445.24;437552;1250;98005;-39
2023/12/18 21:14:49;;;;;;;87.00;46.00;;;;;;;4.87;87.49;99433.34;437366;1250;107386;-40
2023/12/18 21:24:56;;;;;;;83.20;40.00;;;;;;;4.76;87.56;99413.83;437419;1250;98933;-40
2023/12/18 21:45:08;;;;;;;49.20;24.50;;;;;;;4.62;87.29;99403.81;437372;1247;107368;-40
2023/12/18 21:55:15;;;;;;;49.30;23.90;;;;;;;4.59;87.30;99401.41;437350;1250;99215;-39
2023/12/18 22:05:22;;;;;;;40.50;21.10;;;;;;;4.51;87.04;99403.86;437483;1247;107930;-40
2023/12/18 22:15:30;;;;;;;27.20;16.60;;;;;;;4.53;86.85;99415.20;437360;1250;98101;-40
2023/12/18 22:25:37;;;;;;;39.30;20.10;;;;;;;4.49;86.65;99420.02;437414;1248;112821;-39
2023/12/18 22:35:45;;;;;;;47.10;25.00;;;;;;;4.32;86.56;99406.59;437593;1250;108345;-40
2023/12/18 23:06:04;;;;;;;30.30;17.40;;;;;;;3.93;86.18;99332.52;437405;1250;99230;-39
2023/12/18 23:16:11;;;;;;;49.90;25.40;;;;;;;3.86;86.28;99324.40;437596;1250;110132;-38
2023/12/18 23:26:18;;;;;;;68.30;32.30;;;;;;;3.65;85.98;99317.70;437457;1254;107756;-39
2023/12/18 23:36:24;;;;;;;35.70;18.70;;;;;;;3.32;85.86;99308.37;437498;1250;98544;-39
2023/12/18 23:46:31;;;;;;;29.30;18.00;;;;;;;3.25;85.83;99300.57;437438;1248;107917;-40
2023/12/18 23:56:38;;;;;;;53.70;25.20;;;;;;;3.36;86.04;99299.02;437554;1250;99259;-39
